Latest Coastal Weather Observations for Coles Point

IDS60701

Issued at 1:25 am CST Saturday 2 August 2014 (issued every 10 minutes, with the page automatically refreshed every 10 minutes)

About coastal observations | Map of coastal stations | Coastal observations for SA | Marine services | Other Formats
Station Details ID: 018191 Name: COLES POINT Lat: -34.37 Lon: 135.37 Height: 28.0 m
Data from the previous 72 hours. | See also: Recent months at Coles Point
Date/Time
CST
Temp

°C
Wind Pressure Rain
since 9am
mm
Weather Cloud Vis
km
Sea
Height
m
Swell
Dir
 
Speed
knots
Gust
knots
hPa Trend Height
m
Period
s
Dir
02/01:00am 6.8 NE 6 7 1029.6 - - - - - - - - -
02/12:30am 5.8 ENE 6 7 1029.6 - - - - - - - - -
02/12:00am 6.7 NE 6 7 1029.6 - - - - - - - - -
 
Date/Time
CST
Temp

°C
Wind Pressure Rain
since 9am
mm
Weather Cloud Vis
km
Sea
Height
m
Swell
Dir
 
Speed
knots
Gust
knots
hPa Trend Height
m
Period
s
Dir
01/11:30pm 5.3 E 3 4 1029.6 - - - - - - - - -
01/11:00pm 5.7 ESE 4 4 1029.5 - - - - - - - - -
01/10:30pm 6.8 SE 6 7 1029.5 - - - - - - - - -
01/10:00pm 7.2 SE 4 7 1029.4 - - - - - - - - -
01/09:30pm 9.5 S 2 2 1029.1 - - - - - - - - -
01/09:00pm 9.2 S 8 11 1029.1 - - Rain - - - - - -
01/08:30pm 9.9 SW 7 12 1028.9 - - - - - - - - -
01/08:00pm 9.2 SSW 12 16 1028.8 - - - - - - - - -
01/07:30pm 8.3 SE 6 8 1028.1 - - - - - - - - -
01/07:00pm 9.5 S 5 6 1027.7 - - - - - - - - -
01/06:30pm 9.8 - - - 1027.3 - - - - - - - - -
01/06:00pm 10.2 WSW 4 7 1026.9 - - Recent precip. - - - - - -
01/05:30pm 11.6 S 9 12 1026.4 - - - - - - - - -
01/05:00pm 12.0 SSW 8 11 1026.0 - - - - - - - - -
01/04:30pm 12.0 SSW 12 15 1025.8 - - - - - - - - -
01/04:00pm 12.4 SSW 12 17 1025.5 - - - - - - - - -
01/03:30pm 13.5 SSW 11 17 1025.2 - - - - - - - - -
01/03:00pm 13.2 SSW 13 17 1025.0 - - - - - - - - -
01/02:30pm 12.9 SSW 14 18 1024.7 - - - - - - - - -
01/02:00pm 13.1 SW 14 17 1024.5 - - - - - - - - -
01/01:30pm 12.8 SW 10 12 1024.4 - - - - - - - - -
01/01:00pm 12.9 SSW 20 27 1024.3 - - - - - - - - -
01/12:54pm 13.3 SSW 18 27 1024.2 - - - - - - - - -
01/12:30pm 12.9 SW 11 14 1024.2 - - - - - - - - -
01/12:00pm 11.1 SSW 20 28 1024.2 - 0.0 - - - - - - -
01/11:49am 12.3 SSW 16 28 1023.9 - 0.0 - - - - - - -
01/11:30am 12.9 SW 14 18 1023.7 - 0.0 - - - - - - -
01/11:00am 12.6 SSW 18 24 1023.6 - 0.0 - - - - - - -
01/10:30am 12.6 SSW 17 24 1023.0 - 0.0 - - - - - - -
01/09:30am 12.5 SW 19 26 1021.7 - 0.0 - - - - - - -
01/09:00am 11.8 SW 22 28 1021.0 - - - - - - - - -
01/08:30am 11.0 SW 19 24 1020.6 - - - - - - - - -
01/08:00am 11.2 SSW 21 28 1020.0 - - - - - - - - -
01/07:00am 10.1 SW 19 25 1019.0 - - - - - - - - -
01/06:00am 10.6 SW 23 34 1017.8 - - - - - - - - -
01/05:49am 10.6 WSW 18 30 1017.6 - - - - - - - - -
01/05:30am 10.0 - - - 1017.3 - - - - - - - - -
01/04:00am 10.8 WSW 22 30 1016.2 - - - - - - - - -
01/03:30am 10.0 - - - 1016.0 - - - - - - - - -
01/03:00am 10.0 WSW 20 26 1015.7 - - Recent precip. - - - - - -
01/02:10am 10.8 WSW 25 37 1015.4 - - - - - - - - -
01/01:30am 10.7 WSW 25 34 1014.9 - - - - - - - - -
01/01:00am 10.5 WSW 25 32 1014.7 - - - - - - - - -
01/12:00am 10.1 SW 24 31 1014.9 - - - - - - - - -
 
Date/Time
CST
Temp

°C
Wind Pressure Rain
since 9am
mm
Weather Cloud Vis
km
Sea
Height
m
Swell
Dir
 
Speed
knots
Gust
knots
hPa Trend Height
m
Period
s
Dir
31/11:44pm 10.6 SW 18 30 1014.6 - - - - - - - - -
31/11:30pm 10.3 - - - 1014.6 - - - - - - - - -
31/11:00pm 10.5 - - - 1014.4 - - - - - - - - -
31/10:30pm 10.7 WSW 22 28 1014.3 - - - - - - - - -
31/10:06pm 9.8 WSW 19 29 1014.3 - - - - - - - - -
31/10:00pm 9.4 WSW 20 27 1014.3 - - - - - - - - -
31/09:30pm 10.1 WSW 23 34 1014.0 - - - - - - - - -
31/09:00pm 8.3 WSW 17 28 1014.0 - - Rain - - - - - -
31/08:37pm 9.6 WSW 19 29 1013.6 - - - - - - - - -
31/08:30pm 9.9 WSW 18 23 1013.7 - - - - - - - - -
31/08:20pm 9.2 SSW 23 27 1013.5 - - - - - - - - -
31/08:15pm 9.9 SW 33 39 1013.3 - - - - - - - - -
31/08:14pm 10.3 WSW 23 39 1013.3 - - - - - - - - -
31/08:00pm 11.0 WSW 20 27 1013.2 - - - - - - - - -
31/07:30pm 10.7 WSW 22 29 1013.3 - - - - - - - - -
31/07:03pm 10.4 WSW 22 32 1013.0 - - - - - - - - -
31/07:00pm 10.4 WSW 19 26 1012.8 - - - - - - - - -
31/06:32pm 10.4 WSW 22 39 1012.7 - - - - - - - - -
31/06:30pm 11.0 WSW 21 28 1012.5 - - - - - - - - -
31/06:00pm 10.2 SW 25 33 1012.2 - - - - - - - - -
31/05:40pm 10.7 WSW 21 32 1011.6 - - - - - - - - -
31/05:30pm 9.7 SW 22 28 1011.5 - - - - - - - - -
31/05:00pm 10.9 WSW 21 28 1011.2 - - - - - - - - -
31/04:32pm 9.7 WSW 24 36 1011.2 - - - - - - - - -
31/04:30pm 11.6 WSW 22 28 1010.6 - - - - - - - - -
31/04:00pm 11.5 WSW 24 33 1010.5 - - - - - - - - -
31/03:30pm 10.0 SW 24 35 1010.3 - - - - - - - - -
31/03:10pm 10.6 WSW 25 36 1010.0 - - - - - - - - -
31/03:00pm 10.7 - - - 1009.8 - - Recent precip. - - - - - -
31/02:31pm 12.6 WSW 24 35 1008.7 - - - - - - - - -
31/02:30pm 12.7 WSW 23 32 1008.7 - - - - - - - - -
31/02:00pm 12.4 WSW 26 34 1008.3 - - - - - - - - -
31/01:30pm 13.4 W 27 39 1007.8 - - - - - - - - -
31/01:00pm 13.3 W 27 39 1007.6 - - - - - - - - -
31/12:38pm 14.1 W 22 33 1007.4 - - - - - - - - -
31/12:30pm 14.0 W 24 33 1007.4 - - - - - - - - -
31/12:08pm 13.5 W 16 28 1007.6 - - - - - - - - -
31/12:00pm 13.2 W 17 26 1007.6 - - - - - - - - -
31/11:30am 12.7 WSW 20 25 1007.7 - 2.0 - - - - - - -
31/11:00am 11.8 WSW 24 31 1007.6 - 2.0 - - - - - - -
31/10:30am 12.5 WSW 19 26 1007.4 - 1.6 - - - - - - -
31/10:00am 12.6 WSW 15 20 1006.9 - 1.6 - - - - - - -
31/09:47am 12.6 WSW 15 19 1006.9 - 1.2 - - - - - - -
31/09:30am 15.5 NW 22 28 1006.1 - 0.0 - - - - - - -
31/09:00am 15.4 NW 22 29 1006.0 - - - - - - - - -
31/08:30am 15.1 NW 22 27 1006.2 - - - - - - - - -
31/08:00am 14.8 NW 19 26 1006.3 - - - - - - - - -
31/07:30am 14.8 NW 20 26 1006.1 - - - - - - - - -
31/07:00am 14.8 NW 20 26 1006.5 - - - - - - - - -
31/06:30am 14.8 NW 20 26 1006.6 - - - - - - - - -
31/06:00am 14.7 NW 19 25 1006.8 - - - - - - - - -
31/05:30am 14.7 NW 18 25 1007.1 - - - - - - - - -
31/05:00am 14.8 NW 19 24 1007.2 - - - - - - - - -
31/04:30am 15.0 WNW 19 25 1007.4 - - - - - - - - -
31/04:00am 15.0 NW 18 25 1007.7 - - - - - - - - -
31/03:30am 14.8 NW 18 23 1008.2 - - - - - - - - -
31/03:00am 14.7 NW 16 22 1008.6 - 0.0 - - - - - - -
31/02:30am 14.8 NW 16 23 1009.1 - - - - - - - - -
31/02:00am 14.6 NW 15 18 1009.4 - - - - - - - - -
31/01:30am 14.4 NW 13 17 1009.7 - - - - - - - - -
31/01:00am 14.7 WNW 15 19 1010.0 - - - - - - - - -
31/12:30am 14.6 WNW 14 19 1010.6 - - - - - - - - -
31/12:00am 14.7 WNW 14 19 1010.9 - - - - - - - - -
 
Date/Time
CST
Temp

°C
Wind Pressure Rain
since 9am
mm
Weather Cloud Vis
km
Sea
Height
m
Swell
Dir
 
Speed
knots
Gust
knots
hPa Trend Height
m
Period
s
Dir
30/11:30pm 14.7 WNW 15 19 1011.2 - - - - - - - - -
30/11:00pm 15.1 WNW 16 22 1011.6 - - - - - - - - -
30/10:30pm 15.1 WNW 16 21 1012.0 - - - - - - - - -
30/10:00pm 15.0 WNW 17 22 1012.2 - - - - - - - - -
30/09:30pm 14.6 NW 13 17 1012.8 - - - - - - - - -
30/09:00pm 14.6 NW 14 19 1013.2 - 0.0 - - - - - - -
30/08:30pm 14.7 NW 13 19 1013.6 - - - - - - - - -
30/08:00pm 14.8 NW 13 19 1013.8 - - - - - - - - -
30/07:30pm 15.1 NW 14 20 1014.1 - - - - - - - - -
30/07:00pm 15.1 NW 15 19 1014.2 - - - - - - - - -
30/06:30pm 15.1 NW 15 21 1014.2 - - - - - - - - -
30/06:00pm 14.9 NNW 14 19 1014.0 - - - - - - - - -
30/05:30pm 14.9 NNW 15 20 1014.0 - - - - - - - - -
30/05:00pm 15.0 NNW 15 20 1013.8 - - - - - - - - -
30/04:30pm 15.3 NNW 16 22 1014.1 - - - - - - - - -
30/04:00pm 15.7 NNW 16 22 1014.2 - - - - - - - - -
30/03:30pm 15.8 NNW 15 22 1014.5 - - - - - - - - -
30/03:00pm 16.0 NNW 16 22 1014.7 - - - - - - - - -
30/02:30pm 15.7 NNW 16 23 1015.0 - - - - - - - - -
30/02:00pm 16.1 NW 14 19 1015.4 - - - - - - - - -
30/01:30pm 15.6 NW 14 21 1016.1 - - - - - - - - -
30/01:00pm 15.6 NW 15 21 1016.3 - - - - - - - - -
30/12:30pm 16.1 NNW 15 20 1016.9 - - - - - - - - -
30/12:00pm 16.5 NW 14 20 1017.5 - - - - - - - - -
30/11:30am 16.6 NW 13 16 1017.9 - 0.0 - - - - - - -
30/11:00am 16.3 NW 13 18 1018.2 - 0.0 - - - - - - -
30/10:30am 16.5 NW 11 14 1018.7 - 0.0 - - - - - - -
30/10:00am 15.9 NW 11 14 1018.8 - 0.0 - - - - - - -
30/09:30am 15.4 WNW 10 12 1018.8 - 0.0 - - - - - - -
30/09:00am 14.9 WNW 14 18 1018.9 - - Recent precip. - - - - - -
30/08:30am 13.9 NW 13 17 1018.9 - - - - - - - - -
30/08:00am 14.2 W 12 21 1018.9 - - - - - - - - -
30/07:30am 15.0 WNW 10 14 1018.5 - - - - - - - - -
30/07:00am 14.9 - - - 1018.1 - - - - - - - - -
30/05:30am 14.8 WNW 12 15 1018.0 - - - - - - - - -
30/05:00am 14.8 WNW 11 13 1017.7 - - - - - - - - -
30/04:30am 14.8 - - - 1017.8 - - - - - - - - -
30/04:00am 14.6 - - - 1017.8 - - - - - - - - -
30/02:30am 14.6 WNW 11 15 1018.6 - - - - - - - - -

Other Formats:

Comma delimited format used in spreadsheet applications
http://www.bom.gov.au/fwo/IDS60701/IDS60701.94658.axf

JavaScript Object Notation format (JSON) in row-major order
http://www.bom.gov.au/fwo/IDS60701/IDS60701.94658.json